Time;durP1;ratioP1;P1;durP2;ratioP2;P2;SDS_P1;SDS_P2;PMS_P1;PMS_P2;Temp;Humidity;BMP_temperature;BMP_pressure;BME280_temperature;BME280_humidity;BME280_pressure;Samples;Min_cycle;Max_cycle;Signal;HPM_P1;HPM_P2
2022/10/09 00:02:12;;;;;;;;;;;6.80;99.90;;;;;;5075461;28;19912;-73
2022/10/09 00:04:38;;;;;;;;;;;6.70;99.90;;;;;;5057753;28;20292;-73
2022/10/09 00:07:03;;;;;;;;;;;6.70;99.90;;;;;;5057727;28;19904;-73
2022/10/09 00:09:29;;;;;;;;;;;6.70;99.90;;;;;;5057508;28;19954;-73
2022/10/09 00:11:54;;;;;;;;;;;6.70;99.90;;;;;;5075468;28;19999;-72
2022/10/09 00:14:19;;;;;;;;;;;6.70;99.90;;;;;;5057640;28;19911;-72
2022/10/09 00:16:45;;;;;;;;;;;6.70;99.90;;;;;;5057604;28;19911;-73
2022/10/09 00:19:10;;;;;;;;;;;6.70;99.90;;;;;;5057477;28;19904;-73
2022/10/09 00:21:36;;;;;;;;;;;6.70;99.90;;;;;;5075280;28;19904;-72
2022/10/09 00:24:02;;;;;;;;;;;6.70;99.90;;;;;;5075354;28;20002;-73
2022/10/09 00:26:28;;;;;;;;;;;6.70;99.90;;;;;;5075484;28;19908;-73
2022/10/09 00:28:53;;;;;;;;;;;6.80;99.90;;;;;;5057242;28;19908;-73
2022/10/09 00:31:19;;;;;;;;;;;6.80;99.90;;;;;;5057203;28;19927;-73
2022/10/09 00:33:45;;;;;;;;;;;6.70;99.90;;;;;;5075212;28;19911;-72
2022/10/09 00:36:12;;;;;;;;;;;6.70;99.90;;;;;;5057168;28;19905;-73
2022/10/09 00:38:37;;;;;;;;;;;6.70;99.90;;;;;;5075117;28;19959;-73
2022/10/09 00:41:03;;;;;;;;;;;6.70;99.90;;;;;;5074757;28;19904;-73
2022/10/09 00:43:44;;;;;;;;;;;6.70;99.90;;;;;;5074943;28;20377;-73
2022/10/09 00:46:19;;;;;;;;;;;6.70;99.90;;;;;;5074946;28;19912;-73
2022/10/09 00:48:45;;;;;;;;;;;6.80;99.90;;;;;;5056858;28;19915;-73
2022/10/09 00:51:13;;;;;;;;;;;6.70;99.90;;;;;;5056854;28;19911;-73
2022/10/09 00:53:38;;;;;;;;;;;6.80;99.90;;;;;;5074814;28;19994;-73
2022/10/09 00:56:04;;;;;;;;;;;6.80;99.90;;;;;;5074529;28;19940;-73
2022/10/09 00:58:29;;;;;;;;;;;6.80;99.90;;;;;;5075185;28;19904;-73
2022/10/09 01:00:55;;;;;;;;;;;6.80;99.90;;;;;;5074217;28;20325;-73
2022/10/09 01:03:23;;;;;;;;;;;6.80;99.90;;;;;;5075751;28;19912;-75
2022/10/09 01:06:14;;;;;;;;;;;6.80;99.90;;;;;;5057110;28;19954;-74
2022/10/09 01:08:40;;;;;;;;;;;6.80;99.90;;;;;;5074362;28;19953;-74
2022/10/09 01:11:05;;;;;;;;;;;6.70;99.90;;;;;;5074437;28;19904;-74
2022/10/09 01:13:30;;;;;;;;;;;6.70;99.90;;;;;;5074330;28;19991;-74
2022/10/09 01:16:03;;;;;;;;;;;6.60;99.90;;;;;;5056325;28;19904;-75
2022/10/09 01:18:45;;;;;;;;;;;6.60;99.90;;;;;;5056889;28;20280;-74
2022/10/09 01:21:14;;;;;;;;;;;6.60;99.90;;;;;;5056298;28;19904;-74
2022/10/09 01:24:12;;;;;;;;;;;6.60;99.90;;;;;;5056262;28;19911;-74
2022/10/09 01:26:47;;;;;;;;;;;6.60;99.90;;;;;;5034180;28;19915;-74
2022/10/09 01:29:13;;;;;;;;;;;6.50;99.90;;;;;;5056069;28;19915;-75
2022/10/09 01:31:41;;;;;;;;;;;6.50;99.90;;;;;;5056093;28;19905;-75
2022/10/09 01:34:07;;;;;;;;;;;6.50;99.90;;;;;;5074079;28;19911;-75
2022/10/09 01:36:34;;;;;;;;;;;6.40;99.90;;;;;;5056083;28;20292;-75
2022/10/09 01:39:01;;;;;;;;;;;6.40;99.90;;;;;;5074052;28;20272;-75
2022/10/09 01:41:26;;;;;;;;;;;6.40;99.90;;;;;;5073876;28;19911;-74
2022/10/09 01:43:52;;;;;;;;;;;6.40;99.90;;;;;;5073891;28;19904;-74
2022/10/09 01:46:20;;;;;;;;;;;6.40;99.90;;;;;;5055946;28;19915;-74
2022/10/09 01:48:49;;;;;;;;;;;6.30;99.90;;;;;;5055834;28;19908;-74
2022/10/09 01:51:15;;;;;;;;;;;6.30;99.90;;;;;;5055784;28;19932;-74
2022/10/09 01:53:42;;;;;;;;;;;6.30;99.90;;;;;;5073781;28;19950;-74
2022/10/09 01:56:13;;;;;;;;;;;6.30;99.90;;;;;;5055842;28;19908;-75
2022/10/09 01:58:43;;;;;;;;;;;6.40;99.90;;;;;;5073763;28;19908;-75
2022/10/09 02:01:20;;;;;;;;;;;6.40;99.90;;;;;;5055607;28;20409;-75
2022/10/09 02:03:48;;;;;;;;;;;6.40;99.90;;;;;;5073730;28;19904;-75
2022/10/09 02:06:14;;;;;;;;;;;6.30;99.90;;;;;;5073556;28;19947;-75
2022/10/09 02:08:40;;;;;;;;;;;6.30;99.90;;;;;;5055299;28;19905;-75
2022/10/09 02:11:06;;;;;;;;;;;6.30;99.90;;;;;;5055487;28;19953;-75
2022/10/09 02:13:32;;;;;;;;;;;6.20;99.90;;;;;;5055498;28;19965;-75
2022/10/09 02:15:57;;;;;;;;;;;6.20;99.90;;;;;;5073547;28;19990;-75
2022/10/09 02:18:35;;;;;;;;;;;6.20;99.90;;;;;;5073407;28;19944;-75
2022/10/09 02:21:04;;;;;;;;;;;6.20;99.90;;;;;;5055455;28;20002;-75
2022/10/09 02:23:30;;;;;;;;;;;6.10;99.90;;;;;;5073416;28;19904;-75
2022/10/09 02:25:56;;;;;;;;;;;6.10;99.90;;;;;;5073393;28;19911;-75
2022/10/09 02:28:21;;;;;;;;;;;6.10;99.90;;;;;;5055518;28;19962;-75
2022/10/09 02:30:50;;;;;;;;;;;6.10;99.90;;;;;;5073321;28;19908;-75
2022/10/09 02:33:16;;;;;;;;;;;6.10;99.90;;;;;;5055367;28;20353;-75
2022/10/09 02:35:41;;;;;;;;;;;6.10;99.90;;;;;;5055302;28;19946;-75
2022/10/09 02:38:07;;;;;;;;;;;6.20;99.90;;;;;;5073301;28;19908;-74
2022/10/09 02:40:32;;;;;;;;;;;6.10;99.90;;;;;;5055351;28;19904;-74
2022/10/09 02:42:58;;;;;;;;;;;6.10;99.90;;;;;;5073328;28;19912;-75
2022/10/09 02:45:23;;;;;;;;;;;6.10;99.90;;;;;;5055250;28;19999;-75
2022/10/09 02:47:49;;;;;;;;;;;6.10;99.90;;;;;;5073256;28;20373;-74
2022/10/09 02:50:14;;;;;;;;;;;6.10;99.90;;;;;;5055439;28;19908;-75
2022/10/09 02:52:40;;;;;;;;;;;6.10;99.90;;;;;;5073316;28;19912;-74
2022/10/09 02:55:05;;;;;;;;;;;6.10;99.90;;;;;;5055367;28;19904;-74
2022/10/09 02:57:31;;;;;;;;;;;6.10;99.90;;;;;;5055192;28;20013;-74
2022/10/09 02:59:56;;;;;;;;;;;6.10;99.90;;;;;;5072945;28;20261;-75
2022/10/09 03:02:25;;;;;;;;;;;6.10;99.90;;;;;;5055050;28;20042;-75
2022/10/09 03:04:50;;;;;;;;;;;6.10;99.90;;;;;;5073125;28;20371;-75
2022/10/09 03:07:16;;;;;;;;;;;6.00;99.90;;;;;;5073086;28;19987;-74
2022/10/09 03:09:41;;;;;;;;;;;6.00;99.90;;;;;;5054763;28;20285;-74
2022/10/09 03:12:07;;;;;;;;;;;5.90;99.90;;;;;;5073528;28;19954;-74
2022/10/09 03:14:33;;;;;;;;;;;5.90;99.90;;;;;;5055517;28;19962;-74
2022/10/09 03:16:59;;;;;;;;;;;5.90;99.90;;;;;;5073570;28;19944;-75
2022/10/09 03:19:24;;;;;;;;;;;5.90;99.90;;;;;;5074148;28;19911;-74
2022/10/09 03:21:50;;;;;;;;;;;5.80;99.90;;;;;;5058576;28;19908;-75
2022/10/09 03:24:15;;;;;;;;;;;5.80;99.90;;;;;;5058484;28;20284;-75
2022/10/09 03:26:41;;;;;;;;;;;5.80;99.90;;;;;;5058501;28;19911;-75
2022/10/09 03:29:06;;;;;;;;;;;5.80;99.90;;;;;;5058379;28;19908;-74
2022/10/09 03:31:32;;;;;;;;;;;5.80;99.90;;;;;;5076154;28;19961;-74
2022/10/09 03:33:57;;;;;;;;;;;5.80;99.90;;;;;;5076223;28;19915;-74
2022/10/09 03:36:23;;;;;;;;;;;5.80;99.90;;;;;;5076244;28;19911;-75
2022/10/09 03:38:48;;;;;;;;;;;5.70;99.90;;;;;;5076201;28;19953;-74
2022/10/09 03:41:14;;;;;;;;;;;5.80;99.90;;;;;;5058193;28;19991;-75
2022/10/09 03:43:39;;;;;;;;;;;5.80;99.90;;;;;;5076065;28;20407;-75
2022/10/09 03:46:05;;;;;;;;;;;5.80;99.90;;;;;;5057995;28;20262;-75
2022/10/09 03:48:31;;;;;;;;;;;5.70;99.90;;;;;;5075871;28;19905;-75
2022/10/09 03:50:56;;;;;;;;;;;5.70;99.90;;;;;;5075944;28;20016;-74
2022/10/09 03:53:22;;;;;;;;;;;5.70;99.90;;;;;;5076036;28;19904;-74
2022/10/09 03:55:47;;;;;;;;;;;5.70;99.90;;;;;;5075837;28;19908;-75
2022/10/09 03:58:12;;;;;;;;;;;5.70;99.90;;;;;;5057971;28;19911;-75
2022/10/09 04:00:38;;;;;;;;;;;5.60;99.90;;;;;;5075618;28;19958;-74
2022/10/09 04:03:03;;;;;;;;;;;5.60;99.90;;;;;;5075833;28;19912;-74
2022/10/09 04:05:31;;;;;;;;;;;5.60;99.90;;;;;;5076214;28;19905;-74
2022/10/09 04:07:57;;;;;;;;;;;5.50;99.90;;;;;;5057822;28;19999;-74
2022/10/09 04:10:22;;;;;;;;;;;5.50;99.90;;;;;;5075444;28;20043;-74
2022/10/09 04:12:48;;;;;;;;;;;5.40;99.90;;;;;;5076149;28;20342;-74
2022/10/09 04:15:13;;;;;;;;;;;5.40;99.90;;;;;;5076077;28;19953;-74
2022/10/09 04:17:39;;;;;;;;;;;5.50;99.90;;;;;;5057527;28;19904;-74
2022/10/09 04:20:04;;;;;;;;;;;5.40;99.90;;;;;;5057345;28;19904;-74
2022/10/09 04:22:30;;;;;;;;;;;5.40;99.90;;;;;;5075802;28;19911;-74
2022/10/09 04:24:58;;;;;;;;;;;5.40;99.90;;;;;;5057411;28;19993;-74
2022/10/09 04:27:24;;;;;;;;;;;6.70;99.90;;;;;;5057236;28;19904;-74
2022/10/09 04:29:49;;;;;;;;;;;5.40;99.90;;;;;;5057048;28;19914;-74
2022/10/09 04:32:15;;;;;;;;;;;5.40;99.90;;;;;;5075136;28;20375;-74
2022/10/09 04:34:40;;;;;;;;;;;5.40;99.90;;;;;;5075117;28;20341;-74
2022/10/09 04:37:06;;;;;;;;;;;5.40;99.90;;;;;;5075016;28;19969;-74
2022/10/09 04:39:31;;;;;;;;;;;5.40;99.90;;;;;;5057090;28;19912;-74
2022/10/09 04:41:56;;;;;;;;;;;5.40;99.90;;;;;;5074895;28;19904;-74
2022/10/09 04:44:22;;;;;;;;;;;5.40;99.90;;;;;;5074919;28;19927;-74
2022/10/09 04:46:50;;;;;;;;;;;5.50;99.90;;;;;;5074861;28;19912;-74
2022/10/09 04:49:16;;;;;;;;;;;5.50;99.90;;;;;;5075264;28;19909;-74
2022/10/09 04:51:42;;;;;;;;;;;5.40;99.90;;;;;;5056822;28;19953;-74
2022/10/09 04:54:08;;;;;;;;;;;5.40;99.90;;;;;;5074712;28;20384;-73
2022/10/09 04:56:33;;;;;;;;;;;5.40;99.90;;;;;;5056698;28;19910;-74
2022/10/09 04:58:59;;;;;;;;;;;5.40;99.90;;;;;;5074690;28;19904;-74
2022/10/09 05:01:25;;;;;;;;;;;5.40;99.90;;;;;;5074415;28;19912;-74
2022/10/09 05:03:51;;;;;;;;;;;5.40;99.90;;;;;;5074529;28;19915;-75
2022/10/09 05:06:18;;;;;;;;;;;5.30;99.90;;;;;;5056575;28;19904;-74
2022/10/09 05:08:43;;;;;;;;;;;5.30;99.90;;;;;;5074422;28;19911;-74
2022/10/09 05:11:13;;;;;;;;;;;5.90;99.90;;;;;;5056381;28;20427;-74
2022/10/09 05:13:40;;;;;;;;;;;5.30;99.90;;;;;;5074226;28;19904;-75
2022/10/09 05:16:06;;;;;;;;;;;5.40;99.90;;;;;;5074288;28;19953;-74
2022/10/09 05:18:32;;;;;;;;;;;5.30;99.90;;;;;;5074353;28;19911;-74
2022/10/09 05:20:58;;;;;;;;;;;5.40;99.90;;;;;;5075187;28;19931;-74
2022/10/09 05:23:23;;;;;;;;;;;5.40;99.90;;;;;;5074165;28;19904;-73
2022/10/09 05:25:59;;;;;;;;;;;5.30;99.90;;;;;;5074090;28;20017;-74
2022/10/09 05:28:24;;;;;;;;;;;5.40;99.90;;;;;;5056124;28;19995;-74
2022/10/09 05:30:50;;;;;;;;;;;5.40;99.90;;;;;;5073781;28;20010;-73
2022/10/09 05:33:15;;;;;;;;;;;5.40;99.90;;;;;;5074138;28;19904;-73
2022/10/09 05:35:48;;;;;;;;;;;5.40;99.90;;;;;;5073981;28;19904;-72
2022/10/09 05:38:14;;;;;;;;;;;5.40;99.90;;;;;;5056077;28;19904;-73
2022/10/09 05:40:48;;;;;;;;;;;5.40;99.90;;;;;;5073796;28;19912;-74
2022/10/09 05:43:13;;;;;;;;;;;5.40;99.90;;;;;;5073612;28;19911;-73
2022/10/09 05:45:39;;;;;;;;;;;5.60;99.90;;;;;;5073954;28;20432;-73
2022/10/09 05:48:04;;;;;;;;;;;5.40;99.90;;;;;;5055878;28;19978;-74
2022/10/09 05:50:30;;;;;;;;;;;5.40;99.90;;;;;;5055936;28;19931;-74
2022/10/09 05:52:55;;;;;;;;;;;5.40;99.90;;;;;;5055875;28;19904;-74
2022/10/09 05:55:21;;;;;;;;;;;5.40;99.90;;;;;;5074368;28;19909;-73
2022/10/09 05:57:46;;;;;;;;;;;5.40;99.90;;;;;;5055671;28;19957;-73
2022/10/09 06:00:12;;;;;;;;;;;5.40;99.90;;;;;;5055564;28;19904;-73
2022/10/09 06:02:37;;;;;;;;;;;5.40;99.90;;;;;;5055664;28;20350;-73
2022/10/09 06:05:03;;;;;;;;;;;5.40;99.90;;;;;;5055498;28;19904;-73
2022/10/09 06:07:29;;;;;;;;;;;5.40;99.90;;;;;;5055631;28;19904;-74
2022/10/09 06:09:57;;;;;;;;;;;5.40;99.90;;;;;;5073451;28;19916;-74
2022/10/09 06:12:23;;;;;;;;;;;5.30;99.90;;;;;;5073535;28;19904;-73
2022/10/09 06:14:49;;;;;;;;;;;5.40;99.90;;;;;;5055585;28;19937;-73
2022/10/09 06:17:14;;;;;;;;;;;5.40;99.90;;;;;;5073581;28;20402;-73
2022/10/09 06:19:39;;;;;;;;;;;5.50;99.90;;;;;;5073340;28;19904;-73
2022/10/09 06:22:05;;;;;;;;;;;5.40;99.90;;;;;;5073274;28;19911;-73
2022/10/09 06:24:30;;;;;;;;;;;5.50;99.90;;;;;;5073422;28;19904;-72
2022/10/09 06:26:56;;;;;;;;;;;5.50;99.90;;;;;;5073313;28;19950;-73
2022/10/09 06:29:22;;;;;;;;;;;5.50;99.90;;;;;;5073569;28;20277;-74
2022/10/09 06:31:47;;;;;;;;;;;5.50;99.90;;;;;;5073212;28;20007;-74
2022/10/09 06:34:12;;;;;;;;;;;5.60;99.90;;;;;;5073791;28;19904;-74
2022/10/09 06:36:38;;;;;;;;;;;5.60;99.90;;;;;;5055252;28;20439;-72
2022/10/09 06:39:05;;;;;;;;;;;5.70;99.90;;;;;;5073281;28;19928;-74
2022/10/09 06:41:30;;;;;;;;;;;5.80;99.90;;;;;;5055282;28;19940;-74
2022/10/09 06:43:57;;;;;;;;;;;9.20;99.90;;;;;;5073205;28;19963;-74
2022/10/09 06:46:24;;;;;;;;;;;5.90;99.90;;;;;;5073725;28;19904;-74
2022/10/09 06:48:50;;;;;;;;;;;6.00;99.90;;;;;;5073213;28;19951;-77
2022/10/09 06:51:17;;;;;;;;;;;6.10;99.90;;;;;;5055101;28;20364;-75
2022/10/09 06:53:44;;;;;;;;;;;6.60;99.90;;;;;;5055523;28;19912;-73
2022/10/09 06:56:11;;;;;;;;;;;6.30;99.90;;;;;;5058068;28;20277;-74
2022/10/09 06:58:37;;;;;;;;;;;6.40;99.90;;;;;;5059098;28;19963;-74
2022/10/09 07:01:04;;;;;;;;;;;6.50;99.90;;;;;;5058594;28;19916;-74
2022/10/09 07:03:30;;;;;;;;;;;6.60;99.90;;;;;;5076898;28;19904;-74
2022/10/09 07:06:08;;;;;;;;;;;6.70;99.90;;;;;;5059014;28;19904;-74
2022/10/09 07:08:33;;;;;;;;;;;6.80;99.90;;;;;;5077397;28;19908;-74
2022/10/09 07:10:59;;;;;;;;;;;6.90;99.90;;;;;;5076584;28;20364;-74
2022/10/09 07:13:24;;;;;;;;;;;7.00;99.90;;;;;;5076734;28;19943;-75
2022/10/09 07:15:50;;;;;;;;;;;7.10;99.90;;;;;;5058711;28;19915;-74
2022/10/09 07:18:15;;;;;;;;;;;7.20;99.90;;;;;;5076731;28;19908;-74
2022/10/09 07:20:41;;;;;;;;;;;9.80;99.90;;;;;;5076421;28;19905;-76
2022/10/09 07:23:06;;;;;;;;;;;7.40;99.90;;;;;;5058697;28;19911;-76
2022/10/09 07:25:36;;;;;;;;;;;7.60;99.90;;;;;;5076585;28;19951;-76
2022/10/09 07:28:01;;;;;;;;;;;7.60;99.90;;;;;;5058410;28;19909;-76
2022/10/09 07:30:27;;;;;;;;;;;7.80;99.90;;;;;;5076219;28;19908;-75
2022/10/09 07:32:52;;;;;;;;;;;7.90;99.90;;;;;;5058590;28;20006;-75
2022/10/09 07:35:18;;;;;;;;;;;8.00;99.90;;;;;;5058009;28;19909;-75
2022/10/09 07:37:50;;;;;;;;;;;8.20;99.90;;;;;;5058186;28;20266;-75
2022/10/09 07:40:18;;;;;;;;;;;8.20;99.90;;;;;;5058267;28;20322;-75
2022/10/09 07:42:44;;;;;;;;;;;8.30;99.90;;;;;;5076296;28;19904;-74
2022/10/09 07:45:09;;;;;;;;;;;8.40;99.90;;;;;;5058973;28;19911;-75
2022/10/09 07:47:35;;;;;;;;;;;8.60;99.90;;;;;;5058179;28;19928;-75
2022/10/09 07:50:00;;;;;;;;;;;8.70;99.90;;;;;;5057889;28;20014;-75
2022/10/09 07:52:26;;;;;;;;;;;8.80;99.90;;;;;;5058129;28;19904;-75
2022/10/09 07:54:51;;;;;;;;;;;8.90;99.90;;;;;;5058025;28;19911;-75
2022/10/09 07:57:17;;;;;;;;;;;9.00;99.90;;;;;;5076160;28;19904;-75
2022/10/09 07:59:43;;;;;;;;;;;9.10;99.90;;;;;;5076473;28;20361;-75
2022/10/09 08:02:09;;;;;;;;;;;9.30;99.90;;;;;;5058026;28;19919;-75
2022/10/09 08:04:35;;;;;;;;;;;9.40;99.90;;;;;;5057379;28;19995;-75
2022/10/09 08:07:01;;;;;;;;;;;9.50;99.90;;;;;;5075702;28;19904;-75
2022/10/09 08:09:26;;;;;;;;;;;9.60;99.90;;;;;;5076104;28;19916;-74
2022/10/09 08:11:52;;;;;;;;;;;9.80;99.90;;;;;;5058827;28;20015;-74
2022/10/09 08:14:17;;;;;;;;;;;9.90;99.90;;;;;;5075622;28;20365;-74
2022/10/09 08:16:43;;;;;;;;;;;10.00;99.90;;;;;;5057683;28;20284;-75
2022/10/09 08:19:08;;;;;;;;;;;10.10;99.90;;;;;;5057660;28;19973;-75
2022/10/09 08:21:34;;;;;;;;;;;10.20;99.90;;;;;;5075386;28;19904;-75
2022/10/09 08:23:59;;;;;;;;;;;10.30;99.90;;;;;;5075409;28;19948;-75
2022/10/09 08:26:32;;;;;;;;;;;10.40;99.90;;;;;;5075961;28;19947;-75
2022/10/09 08:28:58;;;;;;;;;;;10.50;99.90;;;;;;5075261;28;20369;-76
2022/10/09 08:31:24;;;;;;;;;;;10.70;99.90;;;;;;5075110;28;19904;-76
2022/10/09 08:33:53;;;;;;;;;;;10.70;99.90;;;;;;5075198;28;19911;-76
2022/10/09 08:36:19;;;;;;;;;;;10.90;99.90;;;;;;5057130;28;19914;-75
2022/10/09 08:38:44;;;;;;;;;;;11.00;99.90;;;;;;5057159;28;19905;-75
2022/10/09 08:41:28;;;;;;;;;;;11.20;99.90;;;;;;5074974;28;19998;-74
2022/10/09 08:44:10;;;;;;;;;;;11.30;99.90;;;;;;5075467;28;19911;-77
2022/10/09 08:46:51;;;;;;;;;;;11.30;99.90;;;;;;5075341;28;19999;-75
2022/10/09 08:49:29;;;;;;;;;;;11.50;99.90;;;;;;5057872;28;19909;-76
2022/10/09 08:51:56;;;;;;;;;;;11.60;99.90;;;;;;5076691;28;19959;-76
2022/10/09 08:54:40;;;;;;;;;;;11.60;99.90;;;;;;5074612;28;19911;-74
2022/10/09 08:57:09;;;;;;;;;;;11.70;99.90;;;;;;5075129;28;19904;-75
2022/10/09 08:59:35;;;;;;;;;;;11.80;99.90;;;;;;5074585;28;19947;-75
2022/10/09 09:02:03;;;;;;;;;;;11.90;99.90;;;;;;5074334;28;19919;-75
2022/10/09 09:04:37;;;;;;;;;;;12.00;99.90;;;;;;5056525;28;20261;-74
2022/10/09 09:07:12;;;;;;;;;;;12.10;99.90;;;;;;5074391;28;19934;-74
2022/10/09 09:09:38;;;;;;;;;;;12.20;99.90;;;;;;5074144;28;20006;-75
2022/10/09 09:12:08;;;;;;;;;;;12.30;99.90;;;;;;5056362;28;19954;-74
2022/10/09 09:14:37;;;;;;;;;;;12.40;99.90;;;;;;5074490;28;19995;-75
2022/10/09 09:17:16;;;;;;;;;;;12.50;99.90;;;;;;5055582;28;20311;-74
2022/10/09 09:19:51;;;;;;;;;;;12.60;99.90;;;;;;5074631;28;19954;-74
2022/10/09 09:22:16;;;;;;;;;;;12.80;99.90;;;;;;5074674;28;19904;-74
2022/10/09 09:24:46;;;;;;;;;;;12.90;99.90;;;;;;5074016;28;20294;-74
2022/10/09 09:27:13;;;;;;;;;;;13.00;99.90;;;;;;5073964;28;20312;-76
2022/10/09 09:29:42;;;;;;;;;;;13.10;99.90;;;;;;5073752;28;19912;-75
2022/10/09 09:32:11;;;;;;;;;;;13.70;99.90;;;;;;5056000;28;19957;-75
2022/10/09 09:34:38;;;;;;;;;;;13.20;99.90;;;;;;5056009;28;19904;-75
2022/10/09 09:37:04;;;;;;;;;;;13.40;99.90;;;;;;5073870;28;19912;-75
2022/10/09 09:39:32;;;;;;;;;;;13.50;99.90;;;;;;5055898;28;19904;-76
2022/10/09 09:42:06;;;;;;;;;;;13.60;99.90;;;;;;5073735;28;19904;-74
2022/10/09 09:44:34;;;;;;;;;;;13.60;99.90;;;;;;5074307;28;19999;-74
2022/10/09 09:46:59;;;;;;;;;;;13.70;99.90;;;;;;5073691;28;19904;-74
2022/10/09 09:49:27;;;;;;;;;;;13.70;99.90;;;;;;5073583;28;19915;-75
2022/10/09 09:51:53;;;;;;;;;;;13.80;99.90;;;;;;5055842;28;19954;-75
2022/10/09 09:54:21;;;;;;;;;;;14.00;99.90;;;;;;5073633;28;19912;-74
2022/10/09 09:56:47;;;;;;;;;;;14.00;99.90;;;;;;5055468;28;19905;-74
2022/10/09 09:59:33;;;;;;;;;;;14.10;99.90;;;;;;5073546;28;19910;-74
2022/10/09 10:01:59;;;;;;;;;;;14.20;99.90;;;;;;5045641;23;19921;-76
2022/10/09 10:04:27;;;;;;;;;;;14.30;99.90;;;;;;5036237;28;19987;-78
2022/10/09 10:06:53;;;;;;;;;;;14.30;99.90;;;;;;5053579;28;19905;-73
2022/10/09 10:09:19;;;;;;;;;;;14.30;99.90;;;;;;5053486;28;19912;-74
2022/10/09 10:11:51;;;;;;;;;;;16.70;99.90;;;;;;5053349;28;19912;-74
2022/10/09 10:14:16;;;;;;;;;;;14.50;99.90;;;;;;5053090;28;20066;-74
2022/10/09 10:16:42;;;;;;;;;;;14.60;99.90;;;;;;5035589;28;20452;-74
2022/10/09 10:19:38;;;;;;;;;;;14.60;99.90;;;;;;5035508;28;19905;-74
2022/10/09 10:22:05;;;;;;;;;;;14.60;99.90;;;;;;5042357;28;19919;-78
2022/10/09 10:24:33;;;;;;;;;;;14.70;99.90;;;;;;5046652;28;19916;-77
2022/10/09 10:27:04;;;;;;;;;;;14.80;99.90;;;;;;5015928;28;19912;-76
2022/10/09 10:29:32;;;;;;;;;;;14.90;99.90;;;;;;5018868;28;19913;-76
2022/10/09 10:32:13;;;;;;;;;;;14.90;99.90;;;;;;5038671;28;19905;-75
2022/10/09 10:34:42;;;;;;;;;;;15.00;99.90;;;;;;5057794;28;19975;-75
2022/10/09 10:37:19;;;;;;;;;;;15.10;99.90;;;;;;5039137;28;19952;-75
2022/10/09 10:39:51;;;;;;;;;;;15.20;99.90;;;;;;5039345;28;19912;-75
2022/10/09 10:42:20;;;;;;;;;;;15.30;99.90;;;;;;5052512;28;19909;-75
2022/10/09 10:44:53;;;;;;;;;;;15.50;99.90;;;;;;5026972;28;20393;-75
2022/10/09 10:47:21;;;;;;;;;;;15.60;99.90;;;;;;5054395;28;19905;-75
2022/10/09 10:49:46;;;;;;;;;;;15.70;99.90;;;;;;5054198;28;19915;-74
2022/10/09 10:52:20;;;;;;;;;;;15.80;99.90;;;;;;5018896;28;19905;-74
2022/10/09 10:54:53;;;;;;;;;;;15.80;99.90;;;;;;5019182;28;19909;-74
2022/10/09 10:57:38;;;;;;;;;;;15.90;99.90;;;;;;5053737;28;19920;-75
2022/10/09 11:00:05;;;;;;;;;;;15.90;99.90;;;;;;5056539;28;20358;-75
2022/10/09 11:02:49;;;;;;;;;;;15.90;99.90;;;;;;5056463;28;19912;-74
2022/10/09 11:05:21;;;;;;;;;;;16.00;99.90;;;;;;5039037;28;19904;-74
2022/10/09 11:07:47;;;;;;;;;;;16.20;99.90;;;;;;5031903;28;19988;-74
2022/10/09 11:10:13;;;;;;;;;;;16.30;99.90;;;;;;5034931;28;19916;-74
2022/10/09 11:12:44;;;;;;;;;;;16.40;99.90;;;;;;5051751;28;19987;-74
2022/10/09 11:15:30;;;;;;;;;;;16.40;99.90;;;;;;5030340;28;19912;-74
2022/10/09 11:17:58;;;;;;;;;;;16.40;99.90;;;;;;5027301;28;20373;-74
2022/10/09 11:20:43;;;;;;;;;;;16.50;99.90;;;;;;5048407;28;19916;-74
2022/10/09 11:23:20;;;;;;;;;;;16.70;99.90;;;;;;5052645;28;19940;-74
2022/10/09 11:26:05;;;;;;;;;;;16.70;99.90;;;;;;5028811;28;19916;-74
2022/10/09 11:28:36;;;;;;;;;;;16.90;99.90;;;;;;5031120;28;19908;-74
2022/10/09 11:31:05;;;;;;;;;;;16.90;99.90;;;;;;5027801;28;19913;-75
2022/10/09 11:33:37;;;;;;;;;;;17.00;99.90;;;;;;5052186;28;19912;-75
2022/10/09 11:36:05;;;;;;;;;;;17.00;99.90;;;;;;5051582;28;19947;-75
2022/10/09 11:38:33;;;;;;;;;;;17.20;99.90;;;;;;5042025;28;19916;-75
2022/10/09 11:40:59;;;;;;;;;;;17.80;99.90;;;;;;5049900;28;20639;-72
2022/10/09 11:43:25;;;;;;;;;;;17.60;99.90;;;;;;5050298;28;20058;-75
2022/10/09 11:45:53;;;;;;;;;;;17.70;99.90;;;;;;5027966;28;19912;-75
2022/10/09 11:48:29;;;;;;;;;;;17.80;99.90;;;;;;5045507;28;20359;-75
2022/10/09 11:51:11;;;;;;;;;;;17.80;99.90;;;;;;5026077;28;19975;-75
2022/10/09 11:53:37;;;;;;;;;;;17.90;99.90;;;;;;5042838;28;20435;-73
2022/10/09 11:56:05;;;;;;;;;;;18.10;99.90;;;;;;5042818;28;19909;-75
2022/10/09 11:58:30;;;;;;;;;;;18.20;99.90;;;;;;5018056;28;19979;-72
2022/10/09 12:01:08;;;;;;;;;;;18.40;99.90;;;;;;5017799;28;19905;-72
2022/10/09 12:03:35;;;;;;;;;;;18.50;99.10;;;;;;5035597;28;19912;-73
2022/10/09 12:06:01;;;;;;;;;;;18.50;99.80;;;;;;5035523;28;20011;-72
2022/10/09 12:08:27;;;;;;;;;;;18.60;99.00;;;;;;5043664;28;19909;-76
2022/10/09 12:10:55;;;;;;;;;;;18.70;99.10;;;;;;5040205;28;19916;-77
2022/10/09 12:13:39;;;;;;;;;;;18.80;97.70;;;;;;5039921;28;19919;-76
2022/10/09 12:16:06;;;;;;;;;;;18.90;97.60;;;;;;5017518;28;20047;-77
2022/10/09 12:18:36;;;;;;;;;;;19.10;97.90;;;;;;5018343;28;20023;-77
2022/10/09 12:21:04;;;;;;;;;;;19.30;96.00;;;;;;5043063;28;20261;-77
2022/10/09 12:23:34;;;;;;;;;;;19.40;95.90;;;;;;5025343;28;19917;-76
2022/10/09 12:26:00;;;;;;;;;;;19.50;95.30;;;;;;5037610;28;20024;-77
2022/10/09 12:28:34;;;;;;;;;;;19.50;95.60;;;;;;5045177;28;19951;-76
2022/10/09 12:31:01;;;;;;;;;;;19.70;93.50;;;;;;5035545;28;20007;-76
2022/10/09 12:33:42;;;;;;;;;;;19.60;93.60;;;;;;5042754;28;20327;-76
2022/10/09 12:36:14;;;;;;;;;;;19.70;94.20;;;;;;5050673;28;20353;-76
2022/10/09 12:38:41;;;;;;;;;;;19.70;92.00;;;;;;5052901;28;19913;-76
2022/10/09 12:41:11;;;;;;;;;;;19.70;91.90;;;;;;5045048;28;19935;-76
2022/10/09 12:43:42;;;;;;;;;;;19.70;91.70;;;;;;5046242;28;19940;-76
2022/10/09 12:46:08;;;;;;;;;;;19.70;91.50;;;;;;5042193;28;19909;-76
2022/10/09 12:48:35;;;;;;;;;;;19.80;91.30;;;;;;5045401;28;19915;-77
2022/10/09 12:51:01;;;;;;;;;;;20.00;92.10;;;;;;5025314;28;19978;-76
2022/10/09 12:53:27;;;;;;;;;;;20.10;91.60;;;;;;5042312;28;19913;-76
2022/10/09 12:55:58;;;;;;;;;;;20.10;90.00;;;;;;5026511;28;19909;-76
2022/10/09 12:58:23;;;;;;;;;;;20.50;88.50;;;;;;5048886;28;19958;-76
2022/10/09 13:00:50;;;;;;;;;;;20.20;88.40;;;;;;5025218;28;19916;-76
2022/10/09 13:03:22;;;;;;;;;;;20.30;88.80;;;;;;5043025;28;19959;-76
2022/10/09 13:05:48;;;;;;;;;;;20.30;89.30;;;;;;5046674;28;19954;-76
2022/10/09 13:08:34;;;;;;;;;;;20.30;89.40;;;;;;5044709;28;19935;-76
2022/10/09 13:11:16;;;;;;;;;;;20.50;85.30;;;;;;5041394;28;20023;-76
2022/10/09 13:13:42;;;;;;;;;;;20.70;84.60;;;;;;5045517;28;19909;-76
2022/10/09 13:16:09;;;;;;;;;;;20.90;86.00;;;;;;5043568;28;20015;-76
2022/10/09 13:18:35;;;;;;;;;;;21.00;84.10;;;;;;5046400;28;19917;-76
2022/10/09 13:21:01;;;;;;;;;;;21.00;83.00;;;;;;5032898;28;20335;-74
2022/10/09 13:23:28;;;;;;;;;;;21.00;81.50;;;;;;5053558;28;19920;-78
2022/10/09 13:25:56;;;;;;;;;;;21.10;83.50;;;;;;5017323;28;19916;-74
2022/10/09 13:28:23;;;;;;;;;;;21.30;82.40;;;;;;5034004;28;19905;-74
2022/10/09 13:30:48;;;;;;;;;;;21.30;81.90;;;;;;5034150;28;19916;-74
2022/10/09 13:33:15;;;;;;;;;;;21.30;78.90;;;;;;5040736;28;19916;-74
2022/10/09 13:35:40;;;;;;;;;;;21.20;79.30;;;;;;5046007;28;19920;-74
2022/10/09 13:38:06;;;;;;;;;;;21.20;80.90;;;;;;5040138;28;19913;-74
2022/10/09 13:40:32;;;;;;;;;;;21.10;79.60;;;;;;5042807;28;20409;-78
2022/10/09 13:43:01;;;;;;;;;;;21.20;80.30;;;;;;5026771;28;20338;-76
2022/10/09 13:45:26;;;;;;;;;;;21.50;79.00;;;;;;5038271;28;19909;-76
2022/10/09 13:47:52;;;;;;;;;;;21.70;78.90;;;;;;5034162;28;19911;-79
2022/10/09 13:50:18;;;;;;;;;;;21.90;76.70;;;;;;5035303;28;19913;-74
2022/10/09 13:52:44;;;;;;;;;;;22.00;72.80;;;;;;5044150;28;19909;-74
2022/10/09 13:55:10;;;;;;;;;;;21.90;74.20;;;;;;5040779;28;19920;-74
2022/10/09 13:57:35;;;;;;;;;;;22.10;72.80;;;;;;5034017;28;19905;-74
2022/10/09 14:00:01;;;;;;;;;;;22.10;72.20;;;;;;5036164;28;20425;-75
2022/10/09 14:02:27;;;;;;;;;;;22.30;71.60;;;;;;5034088;28;19912;-76
2022/10/09 14:04:52;;;;;;;;;;;22.60;72.30;;;;;;5041341;28;19916;-74
2022/10/09 14:07:18;;;;;;;;;;;22.90;72.10;;;;;;5053722;28;19904;-74
2022/10/09 14:09:43;;;;;;;;;;;23.10;69.40;;;;;;5034986;28;20353;-74
2022/10/09 14:12:09;;;;;;;;;;;23.20;67.90;;;;;;5031607;28;19936;-76
2022/10/09 14:14:34;;;;;;;;;;;23.40;68.00;;;;;;5040135;28;20007;-76
2022/10/09 14:17:00;;;;;;;;;;;23.50;66.70;;;;;;5044157;28;19912;-74
2022/10/09 14:19:26;;;;;;;;;;;23.60;65.50;;;;;;5033517;28;20361;-74
2022/10/09 14:21:53;;;;;;;;;;;23.80;66.40;;;;;;5032031;28;19927;-76
2022/10/09 14:24:18;;;;;;;;;;;24.30;65.20;;;;;;5033624;28;20292;-75
2022/10/09 14:26:44;;;;;;;;;;;24.50;62.80;;;;;;5043963;28;19960;-76
2022/10/09 14:29:10;;;;;;;;;;;24.70;63.00;;;;;;5031738;28;19920;-75